sensor_id;sensor_type;location;lat;lon;timestamp;pressure;altitude;pressure_sealevel;temperature;humidity
60897;BME280;46749;32.932;-117.130;2023-03-03T00:00:51;101583.03;;;13.78;49.04
60897;BME280;46749;32.932;-117.130;2023-03-03T00:03:23;101579.63;;;13.81;49.48
60897;BME280;46749;32.932;-117.130;2023-03-03T00:05:50;101571.19;;;13.88;49.56
60897;BME280;46749;32.932;-117.130;2023-03-03T00:08:18;101571.53;;;13.97;49.02
60897;BME280;46749;32.932;-117.130;2023-03-03T00:10:44;101565.69;;;14.04;49.25
60897;BME280;46749;32.932;-117.130;2023-03-03T00:13:22;101573.50;;;14.04;49.26
60897;BME280;46749;32.932;-117.130;2023-03-03T00:15:50;101571.75;;;14.03;49.16
60897;BME280;46749;32.932;-117.130;2023-03-03T00:18:22;101576.00;;;14.01;49.04
60897;BME280;46749;32.932;-117.130;2023-03-03T00:20:53;101569.84;;;13.99;49.27
60897;BME280;46749;32.932;-117.130;2023-03-03T00:25:50;101564.53;;;13.96;49.26
60897;BME280;46749;32.932;-117.130;2023-03-03T00:28:42;101572.28;;;13.94;49.32
60897;BME280;46749;32.932;-117.130;2023-03-03T00:31:33;101573.16;;;13.95;49.18
60897;BME280;46749;32.932;-117.130;2023-03-03T00:34:24;101580.19;;;13.96;49.26
60897;BME280;46749;32.932;-117.130;2023-03-03T00:36:55;101581.09;;;13.96;49.24
60897;BME280;46749;32.932;-117.130;2023-03-03T00:39:37;101576.69;;;13.95;49.17
60897;BME280;46749;32.932;-117.130;2023-03-03T00:42:14;101574.09;;;13.95;49.17
60897;BME280;46749;32.932;-117.130;2023-03-03T00:44:43;101560.13;;;13.95;49.22
60897;BME280;46749;32.932;-117.130;2023-03-03T00:52:38;101548.06;;;13.98;49.23
60897;BME280;46749;32.932;-117.130;2023-03-03T00:55:06;101548.94;;;13.99;49.37
60897;BME280;46749;32.932;-117.130;2023-03-03T00:57:32;101547.19;;;13.98;49.30
60897;BME280;46749;32.932;-117.130;2023-03-03T00:59:59;101541.06;;;13.97;49.44
60897;BME280;46749;32.932;-117.130;2023-03-03T01:02:27;101548.91;;;13.97;49.25
60897;BME280;46749;32.932;-117.130;2023-03-03T01:04:54;101554.13;;;13.97;49.20
60897;BME280;46749;32.932;-117.130;2023-03-03T01:07:21;101554.97;;;13.96;49.27
60897;BME280;46749;32.932;-117.130;2023-03-03T01:09:47;101555.81;;;13.95;49.36
60897;BME280;46749;32.932;-117.130;2023-03-03T01:12:14;101536.59;;;13.95;49.34
60897;BME280;46749;32.932;-117.130;2023-03-03T01:14:41;101539.38;;;13.99;49.58
60897;BME280;46749;32.932;-117.130;2023-03-03T01:17:08;101551.69;;;14.02;49.60
60897;BME280;46749;32.932;-117.130;2023-03-03T01:19:34;101555.22;;;14.04;49.57
60897;BME280;46749;32.932;-117.130;2023-03-03T01:22:00;101564.78;;;14.03;49.45
60897;BME280;46749;32.932;-117.130;2023-03-03T01:24:27;101572.63;;;14.03;49.51
60897;BME280;46749;32.932;-117.130;2023-03-03T01:26:53;101563.06;;;14.04;49.55
60897;BME280;46749;32.932;-117.130;2023-03-03T01:29:19;101575.25;;;14.03;49.50
60897;BME280;46749;32.932;-117.130;2023-03-03T01:31:45;101570.84;;;14.02;49.47
60897;BME280;46749;32.932;-117.130;2023-03-03T01:34:11;101570.84;;;14.02;49.49
60897;BME280;46749;32.932;-117.130;2023-03-03T01:36:38;101559.53;;;14.02;49.55
60897;BME280;46749;32.932;-117.130;2023-03-03T01:39:04;101569.97;;;14.02;49.47
60897;BME280;46749;32.932;-117.130;2023-03-03T01:41:30;101575.19;;;14.02;49.59
60897;BME280;46749;32.932;-117.130;2023-03-03T01:44:00;101574.28;;;14.01;49.42
60897;BME280;46749;32.932;-117.130;2023-03-03T01:46:34;101576.09;;;14.02;49.49
60897;BME280;46749;32.932;-117.130;2023-03-03T01:49:12;101583.03;;;14.02;49.64
60897;BME280;46749;32.932;-117.130;2023-03-03T01:51:46;101590.88;;;14.02;49.27
60897;BME280;46749;32.932;-117.130;2023-03-03T01:54:35;101611.75;;;14.02;49.53
60897;BME280;46749;32.932;-117.130;2023-03-03T01:57:06;101634.44;;;14.03;49.45
60897;BME280;46749;32.932;-117.130;2023-03-03T01:59:43;101639.66;;;14.03;49.54
60897;BME280;46749;32.932;-117.130;2023-03-03T02:02:11;101643.19;;;14.05;49.63
60897;BME280;46749;32.932;-117.130;2023-03-03T02:04:38;101644.97;;;14.06;49.58
60897;BME280;46749;32.932;-117.130;2023-03-03T02:07:10;101634.47;;;14.04;49.63
60897;BME280;46749;32.932;-117.130;2023-03-03T02:12:22;101632.94;;;14.10;49.91
60897;BME280;46749;32.932;-117.130;2023-03-03T02:14:51;101638.53;;;14.20;49.90
60897;BME280;46749;32.932;-117.130;2023-03-03T02:17:17;101648.38;;;14.27;49.85
60897;BME280;46749;32.932;-117.130;2023-03-03T02:20:04;101654.50;;;14.28;49.65
60897;BME280;46749;32.932;-117.130;2023-03-03T02:22:48;101643.97;;;14.26;49.56
60897;BME280;46749;32.932;-117.130;2023-03-03T02:25:30;101653.44;;;14.23;49.73
60897;BME280;46749;32.932;-117.130;2023-03-03T02:27:59;101642.84;;;14.20;49.66
60897;BME280;46749;32.932;-117.130;2023-03-03T02:30:26;101658.44;;;14.17;49.93
60897;BME280;46749;32.932;-117.130;2023-03-03T02:32:52;101664.47;;;14.14;50.19
60897;BME280;46749;32.932;-117.130;2023-03-03T02:37:52;101677.38;;;14.11;49.90
60897;BME280;46749;32.932;-117.130;2023-03-03T02:40:23;101691.28;;;14.10;49.88
60897;BME280;46749;32.932;-117.130;2023-03-03T02:42:52;101689.50;;;14.09;49.76
60897;BME280;46749;32.932;-117.130;2023-03-03T02:45:18;101692.13;;;14.09;49.81
60897;BME280;46749;32.932;-117.130;2023-03-03T02:47:49;101684.28;;;14.09;49.85
60897;BME280;46749;32.932;-117.130;2023-03-03T02:50:16;101663.38;;;14.09;49.67
60897;BME280;46749;32.932;-117.130;2023-03-03T02:52:42;101657.19;;;14.07;49.79
60897;BME280;46749;32.932;-117.130;2023-03-03T02:55:08;101651.97;;;14.07;49.76
60897;BME280;46749;32.932;-117.130;2023-03-03T02:57:35;101651.09;;;14.07;49.66
60897;BME280;46749;32.932;-117.130;2023-03-03T03:00:01;101641.47;;;14.06;49.83
60897;BME280;46749;32.932;-117.130;2023-03-03T03:02:27;101645.88;;;14.07;49.65
60897;BME280;46749;32.932;-117.130;2023-03-03T03:04:53;101630.97;;;14.04;49.76
60897;BME280;46749;32.932;-117.130;2023-03-03T03:07:20;101632.75;;;14.05;49.81
60897;BME280;46749;32.932;-117.130;2023-03-03T03:09:46;101628.38;;;14.04;49.92
60897;BME280;46749;32.932;-117.130;2023-03-03T03:12:12;101630.97;;;14.04;49.66
60897;BME280;46749;32.932;-117.130;2023-03-03T03:14:40;101630.97;;;14.04;49.59
60897;BME280;46749;32.932;-117.130;2023-03-03T03:17:06;101629.22;;;14.03;49.61
60897;BME280;46749;32.932;-117.130;2023-03-03T03:19:33;101639.66;;;14.03;50.22
60897;BME280;46749;32.932;-117.130;2023-03-03T03:21:59;101638.75;;;14.02;49.83
60897;BME280;46749;32.932;-117.130;2023-03-03T03:24:25;101637.88;;;14.02;49.47
60897;BME280;46749;32.932;-117.130;2023-03-03T03:26:51;101643.09;;;14.02;49.58
60897;BME280;46749;32.932;-117.130;2023-03-03T03:29:18;101648.31;;;14.02;49.37
60897;BME280;46749;32.932;-117.130;2023-03-03T03:31:44;101641.28;;;14.01;49.48
60897;BME280;46749;32.932;-117.130;2023-03-03T03:34:10;101640.41;;;14.00;49.69
60897;BME280;46749;32.932;-117.130;2023-03-03T03:36:36;101646.53;;;14.01;49.56
60897;BME280;46749;32.932;-117.130;2023-03-03T03:39:04;101641.28;;;14.01;49.41
60897;BME280;46749;32.932;-117.130;2023-03-03T03:41:31;101640.50;;;14.02;49.44
60897;BME280;46749;32.932;-117.130;2023-03-03T03:43:57;101634.44;;;14.03;49.46
60897;BME280;46749;32.932;-117.130;2023-03-03T03:46:23;101630.03;;;14.02;49.64
60897;BME280;46749;32.932;-117.130;2023-03-03T03:48:49;101623.09;;;14.02;49.99
60897;BME280;46749;32.932;-117.130;2023-03-03T03:51:16;101623.09;;;14.02;49.91
60897;BME280;46749;32.932;-117.130;2023-03-03T03:53:42;101622.22;;;14.02;50.01
60897;BME280;46749;32.932;-117.130;2023-03-03T03:56:08;101616.97;;;14.02;49.83
60897;BME280;46749;32.932;-117.130;2023-03-03T03:58:34;101625.63;;;14.01;49.98
60897;BME280;46749;32.932;-117.130;2023-03-03T04:01:05;101638.69;;;14.01;49.91
60897;BME280;46749;32.932;-117.130;2023-03-03T04:03:32;101646.53;;;14.01;49.96
60897;BME280;46749;32.932;-117.130;2023-03-03T04:05:58;101651.75;;;14.01;50.05
60897;BME280;46749;32.932;-117.130;2023-03-03T04:08:24;101648.19;;;13.99;49.92
60897;BME280;46749;32.932;-117.130;2023-03-03T04:10:51;101649.09;;;13.99;49.75
60897;BME280;46749;32.932;-117.130;2023-03-03T04:13:17;101662.13;;;13.99;50.03
60897;BME280;46749;32.932;-117.130;2023-03-03T04:15:43;101659.47;;;13.98;49.95
60897;BME280;46749;32.932;-117.130;2023-03-03T04:18:09;101646.41;;;13.98;49.81
60897;BME280;46749;32.932;-117.130;2023-03-03T04:20:35;101642.03;;;13.97;49.86
60897;BME280;46749;32.932;-117.130;2023-03-03T04:23:02;101639.44;;;13.97;49.84
60897;BME280;46749;32.932;-117.130;2023-03-03T04:25:28;101646.38;;;13.96;49.85
60897;BME280;46749;32.932;-117.130;2023-03-03T04:27:54;101637.66;;;13.96;49.98
60897;BME280;46749;32.932;-117.130;2023-03-03T04:30:21;101636.75;;;13.95;49.89
60897;BME280;46749;32.932;-117.130;2023-03-03T04:32:47;101642.94;;;13.97;49.73
60897;BME280;46749;32.932;-117.130;2023-03-03T04:35:14;101648.16;;;13.97;49.75
60897;BME280;46749;32.932;-117.130;2023-03-03T04:37:40;101646.47;;;13.99;49.70
60897;BME280;46749;32.932;-117.130;2023-03-03T04:40:08;101642.13;;;14.00;49.74
60897;BME280;46749;32.932;-117.130;2023-03-03T04:42:35;101645.63;;;14.00;50.07
60897;BME280;46749;32.932;-117.130;2023-03-03T04:45:01;101649.97;;;14.00;49.94
60897;BME280;46749;32.932;-117.130;2023-03-03T04:47:28;101649.97;;;14.00;50.13
60897;BME280;46749;32.932;-117.130;2023-03-03T04:49:54;101661.25;;;13.99;50.33
60897;BME280;46749;32.932;-117.130;2023-03-03T04:52:20;101659.53;;;13.99;50.32
60897;BME280;46749;32.932;-117.130;2023-03-03T04:54:46;101662.09;;;13.98;50.32
60897;BME280;46749;32.932;-117.130;2023-03-03T04:57:13;101664.72;;;13.98;50.28
60897;BME280;46749;32.932;-117.130;2023-03-03T04:59:39;101679.53;;;13.99;50.35
60897;BME280;46749;32.932;-117.130;2023-03-03T05:02:05;101685.66;;;13.99;50.45
60897;BME280;46749;32.932;-117.130;2023-03-03T05:04:31;101687.41;;;14.00;50.02
60897;BME280;46749;32.932;-117.130;2023-03-03T05:06:58;101683.09;;;14.01;50.19
60897;BME280;46749;32.932;-117.130;2023-03-03T05:09:24;101696.16;;;14.01;50.35
60897;BME280;46749;32.932;-117.130;2023-03-03T05:11:50;101693.47;;;13.99;50.55
60897;BME280;46749;32.932;-117.130;2023-03-03T05:14:17;101696.09;;;13.99;50.54
60897;BME280;46749;32.932;-117.130;2023-03-03T05:16:43;101696.09;;;13.99;50.54
60897;BME280;46749;32.932;-117.130;2023-03-03T05:19:09;101695.22;;;13.99;50.45
60897;BME280;46749;32.932;-117.130;2023-03-03T05:21:36;101695.22;;;13.99;50.50
60897;BME280;46749;32.932;-117.130;2023-03-03T05:24:11;101686.44;;;13.97;50.32
60897;BME280;46749;32.932;-117.130;2023-03-03T05:26:39;101688.22;;;13.98;50.46
60897;BME280;46749;32.932;-117.130;2023-03-03T05:29:06;101680.38;;;13.98;50.32
60897;BME280;46749;32.932;-117.130;2023-03-03T05:31:33;101690.00;;;13.99;50.33
60897;BME280;46749;32.932;-117.130;2023-03-03T05:33:59;101687.38;;;13.99;50.28
60897;BME280;46749;32.932;-117.130;2023-03-03T05:36:26;101684.75;;;13.99;50.33
60897;BME280;46749;32.932;-117.130;2023-03-03T05:38:52;101674.31;;;13.99;50.37
60897;BME280;46749;32.932;-117.130;2023-03-03T05:41:18;101667.31;;;13.98;50.58
60897;BME280;46749;32.932;-117.130;2023-03-03T05:43:45;101677.75;;;13.98;50.45
60897;BME280;46749;32.932;-117.130;2023-03-03T05:46:11;101681.22;;;13.97;50.59
60897;BME280;46749;32.932;-117.130;2023-03-03T05:48:38;101676.81;;;13.96;50.60
60897;BME280;46749;32.932;-117.130;2023-03-03T05:51:04;101676.81;;;13.96;50.55
60897;BME280;46749;32.932;-117.130;2023-03-03T05:53:30;101672.41;;;13.95;50.49
60897;BME280;46749;32.932;-117.130;2023-03-03T05:55:57;101680.25;;;13.95;50.59
60897;BME280;46749;32.932;-117.130;2023-03-03T05:58:23;101685.47;;;13.95;50.43
60897;BME280;46749;32.932;-117.130;2023-03-03T06:00:49;101685.56;;;13.96;50.54
60897;BME280;46749;32.932;-117.130;2023-03-03T06:03:16;101679.50;;;13.97;50.22
60897;BME280;46749;32.932;-117.130;2023-03-03T06:05:42;101686.44;;;13.97;50.37
60897;BME280;46749;32.932;-117.130;2023-03-03T06:08:08;101678.59;;;13.97;50.55
60897;BME280;46749;32.932;-117.130;2023-03-03T06:10:35;101689.03;;;13.97;50.67
60897;BME280;46749;32.932;-117.130;2023-03-03T06:13:01;101696.00;;;13.96;50.67
60897;BME280;46749;32.932;-117.130;2023-03-03T06:15:27;101696.84;;;13.95;50.68
60897;BME280;46749;32.932;-117.130;2023-03-03T06:17:53;101698.53;;;13.95;50.63
60897;BME280;46749;32.932;-117.130;2023-03-03T06:20:19;101708.97;;;13.95;50.75
60897;BME280;46749;32.932;-117.130;2023-03-03T06:22:46;101699.34;;;13.94;50.75
60897;BME280;46749;32.932;-117.130;2023-03-03T06:25:12;101703.66;;;13.92;50.59
60897;BME280;46749;32.932;-117.130;2023-03-03T06:27:38;101700.19;;;13.93;50.62
60897;BME280;46749;32.932;-117.130;2023-03-03T06:30:05;101686.31;;;13.94;50.63
60897;BME280;46749;32.932;-117.130;2023-03-03T06:32:31;101682.84;;;13.95;50.51
60897;BME280;46749;32.932;-117.130;2023-03-03T06:34:58;101672.41;;;13.95;50.56
60897;BME280;46749;32.932;-117.130;2023-03-03T06:37:24;101674.22;;;13.96;50.78
60897;BME280;46749;32.932;-117.130;2023-03-03T06:39:50;101681.16;;;13.95;50.65
60897;BME280;46749;32.932;-117.130;2023-03-03T06:42:17;101671.53;;;13.94;50.91
60897;BME280;46749;32.932;-117.130;2023-03-03T06:44:44;101670.63;;;13.94;50.93
60897;BME280;46749;32.932;-117.130;2023-03-03T06:47:10;101669.75;;;13.93;50.97
60897;BME280;46749;32.932;-117.130;2023-03-03T06:49:36;101674.09;;;13.93;50.84
60897;BME280;46749;32.932;-117.130;2023-03-03T06:52:11;101678.41;;;13.92;50.87
60897;BME280;46749;32.932;-117.130;2023-03-03T06:54:38;101680.19;;;13.93;50.94
60897;BME280;46749;32.932;-117.130;2023-03-03T06:57:25;101686.31;;;13.94;50.67
60897;BME280;46749;32.932;-117.130;2023-03-03T06:59:56;101683.69;;;13.94;50.97
60897;BME280;46749;32.932;-117.130;2023-03-03T07:02:23;101683.63;;;13.92;50.72
60897;BME280;46749;32.932;-117.130;2023-03-03T07:04:49;101681.91;;;13.93;50.95
60897;BME280;46749;32.932;-117.130;2023-03-03T07:09:45;101691.44;;;13.91;51.07
60897;BME280;46749;32.932;-117.130;2023-03-03T07:12:25;101694.88;;;13.90;50.90
60897;BME280;46749;32.932;-117.130;2023-03-03T07:15:00;101692.25;;;13.90;50.76
60897;BME280;46749;32.932;-117.130;2023-03-03T07:17:30;101687.84;;;13.89;50.89
60897;BME280;46749;32.932;-117.130;2023-03-03T07:19:58;101696.50;;;13.88;50.88
60897;BME280;46749;32.932;-117.130;2023-03-03T07:22:27;101695.63;;;13.87;50.92
60897;BME280;46749;32.932;-117.130;2023-03-03T07:24:58;101711.28;;;13.87;50.73
60897;BME280;46749;32.932;-117.130;2023-03-03T07:27:28;101726.06;;;13.87;51.17
60897;BME280;46749;32.932;-117.130;2023-03-03T07:32:42;101727.75;;;13.85;50.62
60897;BME280;46749;32.932;-117.130;2023-03-03T07:35:36;101730.31;;;13.83;50.88
60897;BME280;46749;32.932;-117.130;2023-03-03T07:40:58;101728.50;;;13.82;50.70
60897;BME280;46749;32.932;-117.130;2023-03-03T07:43:35;101718.88;;;13.81;50.70
60897;BME280;46749;32.932;-117.130;2023-03-03T07:48:43;101713.63;;;13.80;50.72
60897;BME280;46749;32.932;-117.130;2023-03-03T07:51:18;101717.94;;;13.79;50.81
60897;BME280;46749;32.932;-117.130;2023-03-03T07:53:47;101717.06;;;13.79;50.48
60897;BME280;46749;32.932;-117.130;2023-03-03T07:56:29;101717.91;;;13.77;50.60
60897;BME280;46749;32.932;-117.130;2023-03-03T07:58:56;101716.19;;;13.78;50.76
60897;BME280;46749;32.932;-117.130;2023-03-03T08:04:41;101713.44;;;13.75;50.58
60897;BME280;46749;32.932;-117.130;2023-03-03T08:07:16;101701.25;;;13.75;50.58
60897;BME280;46749;32.932;-117.130;2023-03-03T08:15:23;101696.81;;;13.73;50.59
60897;BME280;46749;32.932;-117.130;2023-03-03T08:17:52;101698.56;;;13.72;50.34
60897;BME280;46749;32.932;-117.130;2023-03-03T08:22:54;101716.78;;;13.71;50.71
60897;BME280;46749;32.932;-117.130;2023-03-03T08:25:20;101702.84;;;13.70;50.47
60897;BME280;46749;32.932;-117.130;2023-03-03T08:27:47;101706.25;;;13.69;50.58
60897;BME280;46749;32.932;-117.130;2023-03-03T08:30:13;101712.34;;;13.70;50.65
60897;BME280;46749;32.932;-117.130;2023-03-03T08:32:39;101711.47;;;13.69;50.49
60897;BME280;46749;32.932;-117.130;2023-03-03T08:35:06;101723.56;;;13.67;50.35
60897;BME280;46749;32.932;-117.130;2023-03-03T08:37:32;101720.13;;;13.68;50.56
60897;BME280;46749;32.932;-117.130;2023-03-03T08:39:58;101718.34;;;13.67;50.48
60897;BME280;46749;32.932;-117.130;2023-03-03T08:42:25;101727.03;;;13.66;50.55
60897;BME280;46749;32.932;-117.130;2023-03-03T08:44:51;101710.47;;;13.66;50.63
60897;BME280;46749;32.932;-117.130;2023-03-03T08:47:17;101719.13;;;13.65;50.61
60897;BME280;46749;32.932;-117.130;2023-03-03T08:49:43;101715.63;;;13.64;50.41
60897;BME280;46749;32.932;-117.130;2023-03-03T08:52:10;101706.00;;;13.63;50.61
60897;BME280;46749;32.932;-117.130;2023-03-03T08:54:36;101699.00;;;13.62;50.43
60897;BME280;46749;32.932;-117.130;2023-03-03T08:57:02;101699.00;;;13.62;50.62
60897;BME280;46749;32.932;-117.130;2023-03-03T08:59:28;101689.41;;;13.61;50.44
60897;BME280;46749;32.932;-117.130;2023-03-03T09:01:54;101703.34;;;13.62;50.41
60897;BME280;46749;32.932;-117.130;2023-03-03T09:04:21;101697.22;;;13.61;50.53
60897;BME280;46749;32.932;-117.130;2023-03-03T09:06:47;101694.63;;;13.61;50.69
60897;BME280;46749;32.932;-117.130;2023-03-03T09:09:13;101702.41;;;13.60;50.33
60897;BME280;46749;32.932;-117.130;2023-03-03T09:11:39;101725.00;;;13.59;50.44
60897;BME280;46749;32.932;-117.130;2023-03-03T09:14:15;101695.41;;;13.59;50.41
60897;BME280;46749;32.932;-117.130;2023-03-03T09:16:52;101705.75;;;13.57;50.26
60897;BME280;46749;32.932;-117.130;2023-03-03T09:19:25;101697.94;;;13.57;50.50
60897;BME280;46749;32.932;-117.130;2023-03-03T09:21:54;101695.31;;;13.57;50.48
60897;BME280;46749;32.932;-117.130;2023-03-03T09:24:26;101701.38;;;13.56;50.38
60897;BME280;46749;32.932;-117.130;2023-03-03T09:26:53;101684.78;;;13.54;50.43
60897;BME280;46749;32.932;-117.130;2023-03-03T09:29:27;101679.56;;;13.54;50.39
60897;BME280;46749;32.932;-117.130;2023-03-03T09:31:56;101683.00;;;13.53;50.42
60897;BME280;46749;32.932;-117.130;2023-03-03T09:34:37;101678.63;;;13.52;50.55
60897;BME280;46749;32.932;-117.130;2023-03-03T09:37:37;101682.03;;;13.51;50.53
60897;BME280;46749;32.932;-117.130;2023-03-03T09:43:11;101668.97;;;13.51;50.36
60897;BME280;46749;32.932;-117.130;2023-03-03T09:45:51;101660.22;;;13.49;50.39
60897;BME280;46749;32.932;-117.130;2023-03-03T09:51:33;101650.59;;;13.48;50.46
60897;BME280;46749;32.932;-117.130;2023-03-03T09:54:25;101651.44;;;13.47;50.40
60897;BME280;46749;32.932;-117.130;2023-03-03T10:08:04;101648.63;;;13.42;50.37
60897;BME280;46749;32.932;-117.130;2023-03-03T10:15:37;101642.53;;;13.42;50.40
60897;BME280;46749;32.932;-117.130;2023-03-03T10:18:28;101650.31;;;13.40;50.34
60897;BME280;46749;32.932;-117.130;2023-03-03T10:21:09;101647.66;;;13.39;50.62
60897;BME280;46749;32.932;-117.130;2023-03-03T10:31:36;101651.00;;;13.36;50.36
60897;BME280;46749;32.932;-117.130;2023-03-03T10:34:37;101637.06;;;13.36;50.44
60897;BME280;46749;32.932;-117.130;2023-03-03T10:43:01;101660.59;;;13.37;50.43
60897;BME280;46749;32.932;-117.130;2023-03-03T10:45:39;101650.16;;;13.37;50.55
60897;BME280;46749;32.932;-117.130;2023-03-03T10:48:37;101657.09;;;13.37;50.57
60897;BME280;46749;32.932;-117.130;2023-03-03T10:57:46;101631.75;;;13.33;50.80
60897;BME280;46749;32.932;-117.130;2023-03-03T11:05:58;101622.00;;;13.29;50.67
60897;BME280;46749;32.932;-117.130;2023-03-03T11:08:49;101626.41;;;13.30;50.80
60897;BME280;46749;32.932;-117.130;2023-03-03T11:11:20;101624.63;;;13.29;50.72
60897;BME280;46749;32.932;-117.130;2023-03-03T11:24:27;101613.34;;;13.30;50.55
60897;BME280;46749;32.932;-117.130;2023-03-03T11:30:12;101623.72;;;13.28;50.81
60897;BME280;46749;32.932;-117.130;2023-03-03T11:35:59;101627.19;;;13.27;50.69
60897;BME280;46749;32.932;-117.130;2023-03-03T11:46:53;101631.38;;;13.23;50.66
60897;BME280;46749;32.932;-117.130;2023-03-03T11:55:25;101627.91;;;13.25;50.63
60897;BME280;46749;32.932;-117.130;2023-03-03T12:00:58;101610.50;;;13.23;50.63
60897;BME280;46749;32.932;-117.130;2023-03-03T12:09:11;101609.47;;;13.20;50.77
60897;BME280;46749;32.932;-117.130;2023-03-03T12:11:47;101605.19;;;13.20;50.79
60897;BME280;46749;32.932;-117.130;2023-03-03T12:17:04;101608.56;;;13.19;50.79
60897;BME280;46749;32.932;-117.130;2023-03-03T12:22:52;101591.13;;;13.18;50.66
60897;BME280;46749;32.932;-117.130;2023-03-03T12:25:28;101598.13;;;13.19;50.81
60897;BME280;46749;32.932;-117.130;2023-03-03T12:29:18;101589.34;;;13.17;50.80
60897;BME280;46749;32.932;-117.130;2023-03-03T12:31:33;101589.34;;;13.17;50.83
60897;BME280;46749;32.932;-117.130;2023-03-03T12:34:33;101596.25;;;13.15;50.87
60897;BME280;46749;32.932;-117.130;2023-03-03T12:42:37;101588.34;;;13.14;50.85
60897;BME280;46749;32.932;-117.130;2023-03-03T12:48:01;101591.03;;;13.15;50.72
60897;BME280;46749;32.932;-117.130;2023-03-03T12:50:43;101585.81;;;13.15;50.77
60897;BME280;46749;32.932;-117.130;2023-03-03T12:56:08;101562.28;;;13.14;50.89
60897;BME280;46749;32.932;-117.130;2023-03-03T13:01:21;101568.28;;;13.13;50.99
60897;BME280;46749;32.932;-117.130;2023-03-03T13:04:07;101572.63;;;13.12;51.07
60897;BME280;46749;32.932;-117.130;2023-03-03T13:06:56;101585.66;;;13.12;50.84
60897;BME280;46749;32.932;-117.130;2023-03-03T13:12:07;101578.69;;;13.11;50.96
60897;BME280;46749;32.932;-117.130;2023-03-03T13:20:07;101572.63;;;13.12;50.90
60897;BME280;46749;32.932;-117.130;2023-03-03T13:22:41;101572.56;;;13.11;50.91
60897;BME280;46749;32.932;-117.130;2023-03-03T13:27:50;101576.00;;;13.10;51.02
60897;BME280;46749;32.932;-117.130;2023-03-03T13:30:24;101575.13;;;13.09;51.12
60897;BME280;46749;32.932;-117.130;2023-03-03T13:32:54;101573.34;;;13.08;51.08
60897;BME280;46749;32.932;-117.130;2023-03-03T13:35:46;101568.13;;;13.08;50.77
60897;BME280;46749;32.932;-117.130;2023-03-03T13:38:21;101573.41;;;13.10;51.03
60897;BME280;46749;32.932;-117.130;2023-03-03T13:44:08;101571.69;;;13.10;50.92
60897;BME280;46749;32.932;-117.130;2023-03-03T13:52:21;101566.34;;;13.07;51.12
60897;BME280;46749;32.932;-117.130;2023-03-03T14:06:21;101564.66;;;13.08;51.15
60897;BME280;46749;32.932;-117.130;2023-03-03T14:08:50;101564.56;;;13.06;51.11
60897;BME280;46749;32.932;-117.130;2023-03-03T14:11:34;101556.69;;;13.05;51.31
60897;BME280;46749;32.932;-117.130;2023-03-03T14:14:18;101566.22;;;13.04;50.87
60897;BME280;46749;32.932;-117.130;2023-03-03T14:20:12;101580.09;;;13.03;51.24
60897;BME280;46749;32.932;-117.130;2023-03-03T14:23:03;101575.72;;;13.02;51.11
60897;BME280;46749;32.932;-117.130;2023-03-03T14:28:22;101598.41;;;13.05;51.09
60897;BME280;46749;32.932;-117.130;2023-03-03T14:30:52;101602.75;;;13.04;51.32
60897;BME280;46749;32.932;-117.130;2023-03-03T14:33:21;101608.78;;;13.03;51.23
60897;BME280;46749;32.932;-117.130;2023-03-03T14:43:39;101618.28;;;13.01;51.25
60897;BME280;46749;32.932;-117.130;2023-03-03T14:46:36;101617.34;;;13.01;51.12
60897;BME280;46749;32.932;-117.130;2023-03-03T14:49:12;101603.56;;;13.03;51.02
60897;BME280;46749;32.932;-117.130;2023-03-03T14:51:46;101616.59;;;13.03;51.28
60897;BME280;46749;32.932;-117.130;2023-03-03T14:54:36;101619.16;;;13.02;51.11
60897;BME280;46749;32.932;-117.130;2023-03-03T14:57:10;101613.06;;;13.01;51.33
60897;BME280;46749;32.932;-117.130;2023-03-03T14:59:38;101614.75;;;13.01;51.26
60897;BME280;46749;32.932;-117.130;2023-03-03T15:04:45;101616.47;;;13.00;51.21
60897;BME280;46749;32.932;-117.130;2023-03-03T15:07:32;101613.75;;;12.97;51.17
60897;BME280;46749;32.932;-117.130;2023-03-03T15:10:00;101617.25;;;12.98;51.23
60897;BME280;46749;32.932;-117.130;2023-03-03T15:15:12;101625.13;;;12.99;50.88
60897;BME280;46749;32.932;-117.130;2023-03-03T15:18:08;101622.50;;;12.99;51.14
60897;BME280;46749;32.932;-117.130;2023-03-03T15:20:41;101623.34;;;12.98;51.27
60897;BME280;46749;32.932;-117.130;2023-03-03T15:23:33;101624.19;;;12.97;51.29
60897;BME280;46749;32.932;-117.130;2023-03-03T15:28:43;101631.16;;;12.98;51.15
60897;BME280;46749;32.932;-117.130;2023-03-03T15:34:44;101627.94;;;13.04;51.26
60897;BME280;46749;32.932;-117.130;2023-03-03T15:37:41;101640.28;;;13.08;51.24
60897;BME280;46749;32.932;-117.130;2023-03-03T15:43:11;101633.50;;;13.13;51.30
60897;BME280;46749;32.932;-117.130;2023-03-03T15:51:37;101644.34;;;13.22;51.57
60897;BME280;46749;32.932;-117.130;2023-03-03T15:57:02;101654.97;;;13.27;51.78
60897;BME280;46749;32.932;-117.130;2023-03-03T16:02:21;101656.81;;;13.29;52.35
60897;BME280;46749;32.932;-117.130;2023-03-03T16:05:23;101657.69;;;13.30;52.17
60897;BME280;46749;32.932;-117.130;2023-03-03T16:18:42;101654.91;;;13.25;52.53
60897;BME280;46749;32.932;-117.130;2023-03-03T16:23:49;101658.38;;;13.26;52.70
60897;BME280;46749;32.932;-117.130;2023-03-03T16:26:34;101664.44;;;13.25;52.67
60897;BME280;46749;32.932;-117.130;2023-03-03T16:35:27;101648.69;;;13.21;52.35